Time;durP1;ratioP1;P1;durP2;ratioP2;P2;SDS_P1;SDS_P2;PMS_P1;PMS_P2;Temp;Humidity;BMP_temperature;BMP_pressure;BME280_temperature;BME280_humidity;BME280_pressure;Samples;Min_cycle;Max_cycle;Signal;HPM_P1;HPM_P2
2022/04/08 00:01:41;;;;;;;10.97;2.70;;;8.20;99.90;;;;;;5014714;28;20462;-73
2022/04/08 00:04:07;;;;;;;5.53;2.37;;;8.20;99.90;;;;;;5013340;28;20474;-72
2022/04/08 00:06:34;;;;;;;10.17;2.97;;;8.10;99.90;;;;;;5014695;28;20898;-73
2022/04/08 00:09:01;;;;;;;7.90;2.27;;;7.90;99.90;;;;;;5033568;28;20468;-73
2022/04/08 00:11:28;;;;;;;5.20;2.00;;;7.40;99.90;;;;;;5029041;28;20459;-73
2022/04/08 00:13:55;;;;;;;2.67;1.60;;;6.90;99.90;;;;;;5030776;28;20452;-72
2022/04/08 00:16:22;;;;;;;5.67;2.23;;;6.60;99.90;;;;;;5032971;28;20499;-72
2022/04/08 00:18:50;;;;;;;3.13;1.80;;;6.30;99.90;;;;;;5013511;28;21013;-72
2022/04/08 00:21:16;;;;;;;4.80;2.43;;;6.10;99.90;;;;;;5013625;28;21022;-72
2022/04/08 00:23:43;;;;;;;6.23;2.00;;;5.90;99.90;;;;;;5014849;28;20458;-73
2022/04/08 00:26:10;;;;;;;2.90;1.80;;;5.80;99.90;;;;;;5018587;28;20625;-72
2022/04/08 00:28:37;;;;;;;5.83;1.93;;;5.60;99.90;;;;;;5032039;28;20556;-72
2022/04/08 00:31:04;;;;;;;3.00;2.10;;;5.50;99.90;;;;;;5033133;28;20457;-72
2022/04/08 00:33:33;;;;;;;4.00;2.53;;;5.50;99.90;;;;;;5020153;28;20462;-73
2022/04/08 00:36:00;;;;;;;4.50;2.43;;;5.50;99.90;;;;;;5024671;28;20518;-72
2022/04/08 00:38:27;;;;;;;4.33;2.30;;;5.40;99.90;;;;;;5020396;28;20489;-72
2022/04/08 00:40:53;;;;;;;7.13;3.23;;;5.40;99.90;;;;;;5033087;28;20479;-73
2022/04/08 00:43:31;;;;;;;2.93;2.70;;;5.30;99.90;;;;;;5032354;28;20454;-72
2022/04/08 00:45:57;;;;;;;3.70;3.07;;;5.30;99.90;;;;;;5032218;28;20484;-73
2022/04/08 00:48:24;;;;;;;5.60;2.67;;;5.30;99.90;;;;;;5016461;28;20527;-72
2022/04/08 00:50:52;;;;;;;21.67;3.60;;;5.40;99.90;;;;;;5013235;28;20454;-73
2022/04/08 00:53:19;;;;;;;4.40;2.90;;;5.30;99.90;;;;;;5012984;28;20446;-72
2022/04/08 00:55:46;;;;;;;3.40;2.20;;;5.20;99.90;;;;;;5012951;28;20516;-72
2022/04/08 00:58:14;;;;;;;8.00;3.20;;;5.10;99.90;;;;;;5029935;28;20469;-72
2022/04/08 01:00:42;;;;;;;4.53;2.17;;;5.10;99.90;;;;;;5023641;28;20454;-73
2022/04/08 01:03:09;;;;;;;3.67;2.60;;;5.10;99.90;;;;;;5032455;28;20547;-72
2022/04/08 01:05:36;;;;;;;2.40;2.20;;;5.00;99.90;;;;;;5015388;28;20544;-72
2022/04/08 01:08:05;;;;;;;4.70;2.50;;;5.10;99.90;;;;;;5028004;28;21706;-72
2022/04/08 01:10:32;;;;;;;3.83;2.67;;;5.10;99.90;;;;;;5012508;28;21025;-72
2022/04/08 01:12:58;;;;;;;2.17;2.07;;;5.10;99.90;;;;;;5012406;28;20457;-72
2022/04/08 01:15:25;;;;;;;5.97;2.77;;;5.10;99.90;;;;;;5019806;28;20841;-72
2022/04/08 01:17:52;;;;;;;3.43;2.23;;;5.10;99.90;;;;;;5030071;28;20832;-72
2022/04/08 01:20:19;;;;;;;3.67;2.60;;;5.10;99.90;;;;;;5025962;28;20458;-72
2022/04/08 01:22:45;;;;;;;4.87;2.60;;;5.10;99.90;;;;;;5011987;28;20464;-72
2022/04/08 01:25:13;;;;;;;3.73;2.40;;;5.20;99.90;;;;;;5027214;28;20538;-72
2022/04/08 01:27:41;;;;;;;5.17;2.50;;;5.20;99.90;;;;;;5031252;28;20519;-72
2022/04/08 01:30:12;;;;;;;2.20;2.00;;;5.20;99.90;;;;;;5032220;28;20453;-72
2022/04/08 01:32:39;;;;;;;3.60;2.30;;;5.20;99.90;;;;;;5031347;28;20457;-73
2022/04/08 01:35:06;;;;;;;6.57;2.20;;;5.20;99.90;;;;;;5029136;28;20454;-72
2022/04/08 01:37:33;;;;;;;2.97;2.50;;;5.20;99.90;;;;;;5015343;28;20450;-72
2022/04/08 01:40:00;;;;;;;3.30;2.60;;;5.20;99.90;;;;;;5012209;28;20473;-72
2022/04/08 01:42:28;;;;;;;3.63;2.60;;;5.20;99.90;;;;;;5026926;28;20453;-72
2022/04/08 01:44:55;;;;;;;5.13;3.13;;;5.50;99.90;;;;;;5030562;28;20457;-73
2022/04/08 01:47:22;;;;;;;6.60;3.30;;;5.20;99.90;;;;;;5017113;28;20986;-72
2022/04/08 01:49:49;;;;;;;3.83;2.60;;;5.20;99.90;;;;;;5028333;28;20469;-72
2022/04/08 01:52:16;;;;;;;3.20;3.00;;;5.20;99.90;;;;;;5025695;28;20458;-72
2022/04/08 01:54:42;;;;;;;7.17;3.03;;;5.20;99.90;;;;;;5012642;28;20516;-72
2022/04/08 01:57:09;;;;;;;4.17;3.13;;;5.20;99.90;;;;;;5012128;28;20458;-72
2022/04/08 01:59:37;;;;;;;3.93;2.80;;;5.20;99.90;;;;;;5011599;28;20486;-72
2022/04/08 02:02:05;;;;;;;5.43;3.47;;;5.20;99.90;;;;;;5011595;28;20973;-72
2022/04/08 02:04:31;;;;;;;4.53;2.87;;;5.20;99.90;;;;;;5027039;28;20519;-72
2022/04/08 02:06:59;;;;;;;4.67;3.30;;;5.20;99.90;;;;;;5020321;28;20489;-72
2022/04/08 02:09:25;;;;;;;5.50;3.17;;;5.20;99.90;;;;;;5011418;28;20470;-72
2022/04/08 02:11:52;;;;;;;6.40;2.93;;;5.80;99.90;;;;;;5011783;28;20521;-72
2022/04/08 02:14:18;;;;;;;5.20;3.50;;;5.20;99.90;;;;;;5028240;28;20454;-72
2022/04/08 02:16:46;;;;;;;3.50;2.83;;;5.20;99.90;;;;;;5022367;28;20458;-73
2022/04/08 02:19:13;;;;;;;3.03;2.83;;;5.20;99.90;;;;;;5014419;28;20473;-73
2022/04/08 02:21:40;;;;;;;5.53;3.07;;;5.20;99.90;;;;;;5023886;28;20491;-72
2022/04/08 02:24:07;;;;;;;5.33;3.60;;;5.20;99.90;;;;;;5028896;28;20876;-72
2022/04/08 02:26:34;;;;;;;3.43;3.10;;;5.20;99.90;;;;;;5020353;28;20507;-72
2022/04/08 02:29:01;;;;;;;3.10;2.80;;;5.20;99.90;;;;;;5029817;28;20504;-73
2022/04/08 02:31:27;;;;;;;3.93;2.83;;;5.20;99.90;;;;;;5029312;28;20453;-72
2022/04/08 02:33:55;;;;;;;7.60;3.17;;;5.20;99.90;;;;;;5030898;28;20457;-72
2022/04/08 02:36:22;;;;;;;4.00;2.80;;;5.20;99.90;;;;;;5013123;28;20870;-72
2022/04/08 02:38:49;;;;;;;4.13;2.87;;;5.30;99.90;;;;;;5025556;28;20532;-72
2022/04/08 02:41:16;;;;;;;3.00;2.80;;;5.30;99.90;;;;;;5019307;28;20517;-72
2022/04/08 02:43:42;;;;;;;4.83;2.63;;;5.20;99.90;;;;;;5016333;28;20957;-72
2022/04/08 02:46:09;;;;;;;3.23;2.37;;;5.30;99.90;;;;;;5024811;28;20564;-72
2022/04/08 02:48:36;;;;;;;2.60;2.37;;;5.30;99.90;;;;;;5011306;28;20552;-72
2022/04/08 02:51:04;;;;;;;3.83;2.43;;;5.30;99.90;;;;;;5010903;28;20505;-72
2022/04/08 02:53:30;;;;;;;2.57;2.37;;;5.20;99.90;;;;;;5010867;28;20814;-73
2022/04/08 02:55:57;;;;;;;6.37;2.60;;;5.20;99.90;;;;;;5010787;28;20950;-72
2022/04/08 02:58:23;;;;;;;5.47;2.47;;;5.20;99.90;;;;;;5011091;28;20482;-72
2022/04/08 03:00:50;;;;;;;3.43;2.30;;;5.20;99.90;;;;;;5023715;28;20513;-72
2022/04/08 03:03:17;;;;;;;3.30;2.50;;;5.20;99.90;;;;;;5030309;28;20957;-72
2022/04/08 03:05:43;;;;;;;3.87;2.00;;;5.30;99.90;;;;;;5016975;28;20536;-72
2022/04/08 03:08:11;;;;;;;4.43;2.40;;;5.30;99.90;;;;;;5010547;28;20469;-72
2022/04/08 03:10:38;;;;;;;6.13;2.27;;;5.30;99.90;;;;;;5022437;28;20460;-72
2022/04/08 03:13:05;;;;;;;3.20;2.50;;;5.30;99.90;;;;;;5030487;28;20465;-72
2022/04/08 03:15:31;;;;;;;10.10;2.70;;;5.30;99.90;;;;;;5019065;28;20459;-72
2022/04/08 03:17:58;;;;;;;2.97;2.77;;;5.30;99.90;;;;;;5010726;28;20493;-72
2022/04/08 03:20:25;;;;;;;5.33;3.07;;;5.30;99.90;;;;;;5020398;28;20449;-72
2022/04/08 03:22:51;;;;;;;4.90;2.50;;;5.40;99.90;;;;;;5030297;28;20453;-72
2022/04/08 03:25:20;;;;;;;2.83;2.63;;;5.30;99.90;;;;;;5014667;28;20727;-72
2022/04/08 03:27:46;;;;;;;3.40;2.80;;;5.20;99.90;;;;;;5029594;28;20442;-72
2022/04/08 03:30:13;;;;;;;5.80;3.10;;;5.20;99.90;;;;;;5029780;28;20453;-72
2022/04/08 03:32:40;;;;;;;3.10;2.67;;;5.20;99.90;;;;;;5028102;28;20450;-72
2022/04/08 03:35:08;;;;;;;5.03;2.90;;;5.20;99.90;;;;;;5014243;28;20450;-72
2022/04/08 03:37:34;;;;;;;3.30;3.00;;;5.20;99.90;;;;;;5014536;28;20500;-72
2022/04/08 03:40:01;;;;;;;2.93;2.63;;;5.20;99.90;;;;;;5020702;28;20534;-72
2022/04/08 03:42:29;;;;;;;2.97;2.70;;;5.20;99.90;;;;;;5033934;28;20445;-72
2022/04/08 03:44:56;;;;;;;3.33;3.00;;;5.20;99.90;;;;;;5034031;28;20445;-72
2022/04/08 03:47:22;;;;;;;4.03;2.83;;;5.10;99.90;;;;;;5021154;28;21067;-72
2022/04/08 03:49:49;;;;;;;4.10;3.40;;;5.10;99.90;;;;;;5013875;28;20532;-72
2022/04/08 03:52:16;;;;;;;4.23;3.07;;;5.10;99.90;;;;;;5014212;28;20504;-72
2022/04/08 03:54:43;;;;;;;6.73;3.80;;;5.20;99.90;;;;;;5014071;28;20454;-72
2022/04/08 03:57:10;;;;;;;3.97;3.27;;;5.10;99.90;;;;;;5028651;28;20867;-73
2022/04/08 03:59:38;;;;;;;5.03;3.30;;;5.10;99.90;;;;;;5033785;28;20901;-73
2022/04/08 04:02:07;;;;;;;7.67;3.60;;;5.20;99.90;;;;;;5033010;28;20487;-72
2022/04/08 04:04:34;;;;;;;6.40;4.20;;;5.20;99.90;;;;;;5033216;28;20489;-72
2022/04/08 04:07:01;;;;;;;12.60;4.60;;;5.10;99.90;;;;;;5032270;28;20591;-72
2022/04/08 04:09:27;;;;;;;7.30;3.40;;;5.10;99.90;;;;;;5033180;28;20527;-72
2022/04/08 04:11:54;;;;;;;3.77;3.53;;;5.10;99.90;;;;;;5021696;28;20481;-72
2022/04/08 04:14:21;;;;;;;5.37;3.50;;;5.10;99.90;;;;;;5013796;28;20447;-72
2022/04/08 04:16:49;;;;;;;3.73;3.43;;;5.00;99.90;;;;;;5024161;28;20445;-72
2022/04/08 04:19:15;;;;;;;5.13;3.77;;;5.00;99.90;;;;;;5019526;28;20482;-73
2022/04/08 04:21:42;;;;;;;4.13;3.17;;;5.00;99.90;;;;;;5013671;28;20450;-72
2022/04/08 04:24:09;;;;;;;4.47;4.03;;;5.00;99.90;;;;;;5025403;28;20819;-72
2022/04/08 04:26:35;;;;;;;3.50;3.20;;;5.00;99.90;;;;;;5027948;28;20543;-72
2022/04/08 04:29:02;;;;;;;3.97;3.67;;;4.90;99.90;;;;;;5031854;28;20993;-72
2022/04/08 04:31:29;;;;;;;5.43;3.70;;;4.90;99.90;;;;;;5033095;28;20445;-72
2022/04/08 04:33:57;;;;;;;4.03;3.40;;;4.90;99.90;;;;;;5032737;28;20512;-72
2022/04/08 04:36:24;;;;;;;3.57;3.23;;;4.90;99.90;;;;;;5016895;28;20512;-72
2022/04/08 04:38:50;;;;;;;5.33;3.67;;;4.90;99.90;;;;;;5020334;28;20898;-72
2022/04/08 04:41:18;;;;;;;4.10;3.73;;;4.90;99.90;;;;;;5013221;28;20959;-72
2022/04/08 04:43:45;;;;;;;4.10;3.80;;;4.90;99.90;;;;;;5014257;28;20457;-72
2022/04/08 04:46:11;;;;;;;4.00;3.30;;;4.90;99.90;;;;;;5013875;28;20482;-72
2022/04/08 04:48:38;;;;;;;8.13;4.00;;;4.90;99.90;;;;;;5018890;28;20469;-72
2022/04/08 04:51:06;;;;;;;3.87;3.40;;;4.90;99.90;;;;;;5030180;28;21035;-72
2022/04/08 04:53:33;;;;;;;10.90;3.57;;;4.90;99.90;;;;;;5012762;28;20473;-72
2022/04/08 04:56:00;;;;;;;8.50;3.70;;;5.00;99.90;;;;;;5029846;28;20457;-72
2022/04/08 04:58:27;;;;;;;3.63;3.33;;;5.00;99.90;;;;;;5032334;28;20535;-72
2022/04/08 05:00:53;;;;;;;5.40;3.80;;;5.00;99.90;;;;;;5027040;28;20522;-72
2022/04/08 05:03:20;;;;;;;4.30;3.40;;;5.00;99.90;;;;;;5045422;28;20468;-73
2022/04/08 05:05:47;;;;;;;10.23;3.60;;;5.00;99.90;;;;;;5012861;28;20533;-72
2022/04/08 05:08:16;;;;;;;4.30;3.90;;;5.00;99.90;;;;;;5031836;28;20531;-72
2022/04/08 05:10:42;;;;;;;9.60;4.10;;;5.00;99.90;;;;;;5031923;28;20671;-72
2022/04/08 05:13:12;;;;;;;4.10;3.70;;;5.10;99.90;;;;;;5013067;28;20508;-72
2022/04/08 05:15:42;;;;;;;7.50;3.47;;;5.10;99.90;;;;;;5016842;28;20529;-72
2022/04/08 05:18:09;;;;;;;3.93;3.43;;;5.00;99.90;;;;;;5031472;28;20531;-72
2022/04/08 05:20:36;;;;;;;8.37;4.30;;;5.00;99.90;;;;;;5032069;28;20514;-72
2022/04/08 05:23:03;;;;;;;5.40;4.90;;;5.00;99.90;;;;;;5013903;28;20829;-72
2022/04/08 05:25:31;;;;;;;4.60;4.20;;;5.10;99.90;;;;;;5012868;28;20709;-72
2022/04/08 05:27:57;;;;;;;5.50;4.20;;;5.10;99.90;;;;;;5030267;28;20531;-72
2022/04/08 05:30:24;;;;;;;3.90;3.60;;;5.10;99.90;;;;;;5028254;28;20450;-72
2022/04/08 05:32:51;;;;;;;6.27;3.73;;;5.10;99.90;;;;;;5026392;28;20453;-72
2022/04/08 05:35:19;;;;;;;4.13;3.37;;;5.20;99.90;;;;;;5031159;28;20457;-72
2022/04/08 05:37:47;;;;;;;5.87;3.60;;;5.20;99.90;;;;;;5020300;28;20451;-72
2022/04/08 05:40:16;;;;;;;3.87;3.40;;;5.20;99.90;;;;;;5012150;28;20458;-72
2022/04/08 05:42:45;;;;;;;3.03;2.73;;;5.30;99.90;;;;;;5025595;28;20968;-72
2022/04/08 05:45:12;;;;;;;3.90;3.60;;;5.30;99.90;;;;;;5029842;28;20465;-72
2022/04/08 05:47:39;;;;;;;3.53;3.10;;;5.30;99.90;;;;;;5024565;28;20862;-72
2022/04/08 05:50:06;;;;;;;2.97;2.73;;;5.30;99.90;;;;;;5019748;28;20462;-72
2022/04/08 05:52:33;;;;;;;3.90;3.60;;;5.30;99.90;;;;;;5011653;28;20458;-72
2022/04/08 05:55:00;;;;;;;3.60;3.20;;;5.30;99.90;;;;;;5027850;28;20480;-72
2022/04/08 05:57:27;;;;;;;4.70;3.27;;;5.30;99.90;;;;;;5031741;28;20449;-72
2022/04/08 06:00:00;;;;;;;8.00;3.50;;;5.40;99.90;;;;;;5025524;28;20975;-72
2022/04/08 06:02:26;;;;;;;4.33;3.10;;;5.40;99.90;;;;;;5030313;28;20970;-72
2022/04/08 06:04:53;;;;;;;3.53;2.50;;;5.40;99.90;;;;;;5011398;28;20943;-72
2022/04/08 06:07:19;;;;;;;4.23;2.87;;;5.50;99.90;;;;;;5017304;28;20535;-72
2022/04/08 06:09:46;;;;;;;6.10;3.30;;;5.50;99.90;;;;;;5023370;28;20474;-72
2022/04/08 06:12:13;;;;;;;3.40;3.10;;;5.60;99.90;;;;;;5019756;28;20492;-72
2022/04/08 06:14:39;;;;;;;4.00;3.10;;;5.60;99.90;;;;;;5029768;28;20466;-72
2022/04/08 06:17:07;;;;;;;3.63;3.33;;;5.60;99.90;;;;;;5030748;28;20446;-72
2022/04/08 06:19:34;;;;;;;3.17;2.87;;;5.70;99.90;;;;;;5024729;28;20478;-72
2022/04/08 06:22:00;;;;;;;6.40;3.10;;;5.70;99.90;;;;;;5029578;28;20454;-72
2022/04/08 06:24:27;;;;;;;3.47;3.10;;;5.70;99.90;;;;;;5018872;28;20515;-72
2022/04/08 06:26:54;;;;;;;3.13;2.93;;;5.70;99.90;;;;;;5022600;28;20517;-72
2022/04/08 06:29:20;;;;;;;3.40;3.10;;;5.70;99.90;;;;;;5028533;28;20993;-72
2022/04/08 06:31:47;;;;;;;5.90;3.10;;;5.70;99.90;;;;;;5012923;28;20995;-72
2022/04/08 06:34:15;;;;;;;4.13;3.17;;;5.70;99.90;;;;;;5013900;28;21006;-71
2022/04/08 06:36:42;;;;;;;3.33;3.00;;;5.70;99.90;;;;;;5016852;28;20472;-73
2022/04/08 06:39:09;;;;;;;5.63;2.60;;;5.80;99.90;;;;;;5010745;28;20790;-73
2022/04/08 06:41:36;;;;;;;5.27;3.40;;;5.80;99.90;;;;;;5008400;28;20850;-74
2022/04/08 06:44:03;;;;;;;4.17;3.07;;;5.80;99.90;;;;;;5014056;28;20481;-74
2022/04/08 06:46:29;;;;;;;2.87;2.40;;;5.80;99.90;;;;;;5020313;28;20549;-74
2022/04/08 06:49:02;;;;;;;4.20;2.37;;;5.70;99.90;;;;;;5022730;28;21162;-73
2022/04/08 06:51:30;;;;;;;3.60;2.60;;;5.80;99.90;;;;;;5021106;28;20560;-73
2022/04/08 06:53:57;;;;;;;2.90;2.67;;;5.80;99.90;;;;;;5010532;28;20520;-73
2022/04/08 06:56:24;;;;;;;3.63;2.17;;;5.80;99.90;;;;;;5018152;28;20450;-73
2022/04/08 06:58:51;;;;;;;3.53;2.97;;;5.80;99.90;;;;;;5019248;28;20480;-73
2022/04/08 07:01:18;;;;;;;3.53;2.20;;;5.80;99.90;;;;;;5017491;28;20454;-72
2022/04/08 07:03:44;;;;;;;7.73;2.60;;;5.80;99.90;;;;;;5019937;28;20816;-71
2022/04/08 07:06:11;;;;;;;3.43;2.43;;;5.80;99.90;;;;;;5014317;28;20904;-72
2022/04/08 07:08:39;;;;;;;3.63;2.70;;;5.80;99.90;;;;;;5017656;28;20520;-72
2022/04/08 07:11:06;;;;;;;7.10;3.00;;;5.80;99.90;;;;;;5030592;28;20446;-72
2022/04/08 07:13:33;;;;;;;3.50;2.30;;;5.90;99.90;;;;;;5020947;28;20449;-72
2022/04/08 07:16:00;;;;;;;2.87;2.60;;;5.90;99.90;;;;;;5018299;28;20466;-72
2022/04/08 07:18:27;;;;;;;5.97;2.73;;;6.00;99.90;;;;;;5018671;28;20480;-72
2022/04/08 07:20:54;;;;;;;3.10;2.40;;;6.00;99.90;;;;;;5022660;28;20540;-72
2022/04/08 07:23:21;;;;;;;2.60;2.40;;;6.00;99.90;;;;;;5032040;28;20454;-72
2022/04/08 07:25:49;;;;;;;4.63;3.40;;;6.00;99.90;;;;;;5027029;28;20458;-71
2022/04/08 07:28:16;;;;;;;3.53;3.00;;;6.00;99.90;;;;;;5033485;28;20500;-72
2022/04/08 07:30:42;;;;;;;5.93;2.87;;;6.00;99.90;;;;;;5032545;28;21044;-71
2022/04/08 07:33:10;;;;;;;13.20;8.70;;;6.00;99.90;;;;;;5022135;28;20541;-71
2022/04/08 07:35:37;;;;;;;10.30;5.43;;;6.00;99.90;;;;;;5019458;28;20457;-71
2022/04/08 07:38:05;;;;;;;4.57;4.10;;;6.10;99.90;;;;;;5013361;28;20532;-71
2022/04/08 07:40:32;;;;;;;9.37;6.43;;;6.20;99.90;;;;;;5013412;28;20450;-71
2022/04/08 07:43:01;;;;;;;11.03;5.93;;;6.20;99.90;;;;;;5013257;28;20972;-70
2022/04/08 07:45:29;;;;;;;11.67;6.57;;;6.20;99.90;;;;;;5025274;28;20486;-70
2022/04/08 07:47:58;;;;;;;5.17;2.70;;;6.20;99.90;;;;;;5015998;28;20899;-71
2022/04/08 07:50:26;;;;;;;4.73;2.83;;;6.10;99.90;;;;;;5013378;28;20446;-70
2022/04/08 07:52:53;;;;;;;3.80;2.80;;;6.00;99.90;;;;;;5022278;28;20540;-70
2022/04/08 07:55:23;;;;;;;3.23;2.97;;;5.80;99.90;;;;;;5034717;28;20542;-70
2022/04/08 07:57:51;;;;;;;6.73;3.10;;;5.70;99.90;;;;;;5020605;28;20457;-70
2022/04/08 08:00:21;;;;;;;5.73;3.10;;;5.80;99.90;;;;;;5029803;28;20452;-70
2022/04/08 08:02:48;;;;;;;3.00;2.80;;;5.80;99.90;;;;;;5034232;28;20453;-70
2022/04/08 08:05:16;;;;;;;6.07;3.13;;;5.90;99.90;;;;;;5035986;28;20495;-70
2022/04/08 08:07:49;;;;;;;3.57;3.27;;;5.90;99.90;;;;;;5030707;28;20477;-70
2022/04/08 08:10:21;;;;;;;5.00;2.93;;;6.00;99.90;;;;;;5033337;28;20445;-70
2022/04/08 08:12:48;;;;;;;5.37;3.27;;;6.00;99.90;;;;;;5032878;28;20980;-70
2022/04/08 08:15:16;;;;;;;5.53;3.17;;;6.10;99.90;;;;;;5047405;28;20476;-70
2022/04/08 08:17:45;;;;;;;4.97;3.50;;;6.20;99.90;;;;;;5052352;28;20524;-70
2022/04/08 08:20:14;;;;;;;3.70;3.40;;;6.20;99.90;;;;;;5053624;28;20456;-70
2022/04/08 08:22:42;;;;;;;5.73;4.07;;;6.10;99.90;;;;;;5031020;28;20878;-71
2022/04/08 08:25:10;;;;;;;5.00;3.73;;;6.10;99.90;;;;;;5048119;28;20452;-70
2022/04/08 08:27:39;;;;;;;9.57;3.57;;;6.00;99.90;;;;;;5025685;28;20479;-70
2022/04/08 08:30:08;;;;;;;6.43;3.60;;;6.00;99.90;;;;;;5018253;28;20943;-71
2022/04/08 08:32:34;;;;;;;7.67;3.27;;;6.00;99.90;;;;;;5016522;28;20458;-71
2022/04/08 08:35:03;;;;;;;3.63;3.20;;;6.00;99.90;;;;;;5023799;28;20530;-71
2022/04/08 08:37:30;;;;;;;11.27;3.60;;;6.00;99.90;;;;;;5023383;28;20877;-70
2022/04/08 08:39:56;;;;;;;8.73;3.40;;;6.00;99.90;;;;;;5031224;28;20485;-70
2022/04/08 08:42:25;;;;;;;5.77;3.53;;;6.00;99.90;;;;;;5024953;28;20460;-70
2022/04/08 08:44:52;;;;;;;3.97;3.60;;;5.90;99.90;;;;;;5025797;28;20509;-70
2022/04/08 08:47:19;;;;;;;4.17;3.77;;;5.90;99.90;;;;;;5016453;28;20520;-70
2022/04/08 08:49:49;;;;;;;4.80;4.30;;;5.80;99.90;;;;;;5028678;28;20477;-70
2022/04/08 08:52:18;;;;;;;7.90;4.67;;;5.90;99.90;;;;;;5025857;28;20453;-71
2022/04/08 08:54:46;;;;;;;8.83;5.23;;;5.90;99.90;;;;;;5030817;28;20462;-71
2022/04/08 08:57:14;;;;;;;7.53;4.10;;;6.00;99.90;;;;;;5027196;28;20449;-71
2022/04/08 08:59:42;;;;;;;8.13;3.90;;;6.10;99.90;;;;;;5026608;28;20495;-71
2022/04/08 09:02:09;;;;;;;9.33;4.07;;;6.20;99.90;;;;;;5024932;28;20464;-70
2022/04/08 09:04:41;;;;;;;5.80;3.77;;;6.30;99.90;;;;;;5034052;28;20460;-71
2022/04/08 09:07:09;;;;;;;8.87;3.70;;;6.40;99.90;;;;;;5020264;28;20453;-71
2022/04/08 09:09:37;;;;;;;4.53;4.13;;;6.40;99.90;;;;;;5032460;28;21039;-71
2022/04/08 09:12:12;;;;;;;14.30;3.90;;;6.50;99.90;;;;;;5016091;28;20459;-71
2022/04/08 09:14:40;;;;;;;8.30;3.97;;;6.50;99.90;;;;;;5030413;28;20454;-71
2022/04/08 09:17:08;;;;;;;4.90;4.50;;;6.50;99.90;;;;;;5012487;28;20458;-71
2022/04/08 09:19:35;;;;;;;9.63;4.90;;;6.50;99.90;;;;;;5017559;28;20473;-71
2022/04/08 09:22:02;;;;;;;8.53;5.00;;;6.60;99.90;;;;;;5029044;28;20536;-71
2022/04/08 09:24:29;;;;;;;4.70;3.90;;;6.60;99.90;;;;;;5031522;28;20453;-71
2022/04/08 09:26:57;;;;;;;11.20;4.83;;;6.60;99.90;;;;;;5021093;28;20455;-71
2022/04/08 09:29:27;;;;;;;5.00;4.37;;;6.60;99.90;;;;;;5015273;28;20520;-71
2022/04/08 09:31:57;;;;;;;8.60;4.40;;;6.60;99.90;;;;;;5018629;28;20900;-71
2022/04/08 09:34:24;;;;;;;9.23;4.63;;;6.70;99.90;;;;;;5023310;28;20463;-71
2022/04/08 09:36:51;;;;;;;13.87;6.47;;;6.70;99.90;;;;;;5020451;28;20451;-71
2022/04/08 09:39:17;;;;;;;8.57;5.43;;;6.80;99.90;;;;;;5012078;28;20482;-71
2022/04/08 09:41:46;;;;;;;6.60;4.40;;;6.80;99.90;;;;;;5014023;28;21026;-71
2022/04/08 09:44:20;;;;;;;7.30;4.40;;;6.90;99.90;;;;;;5024154;28;20882;-71
2022/04/08 09:46:47;;;;;;;6.80;4.77;;;6.90;99.90;;;;;;5031309;28;20519;-71
2022/04/08 09:49:14;;;;;;;8.43;4.40;;;7.00;99.90;;;;;;5025031;28;20485;-71
2022/04/08 09:51:42;;;;;;;5.83;4.73;;;7.10;99.90;;;;;;5015280;28;20510;-71
2022/04/08 09:54:12;;;;;;;5.37;3.60;;;7.20;99.90;;;;;;5026596;28;20460;-71
2022/04/08 09:56:40;;;;;;;8.43;4.70;;;7.20;99.90;;;;;;5018995;28;20454;-71
2022/04/08 09:59:12;;;;;;;18.50;5.37;;;7.20;99.90;;;;;;5015538;28;20470;-71
2022/04/08 10:01:41;;;;;;;6.03;4.43;;;7.20;99.90;;;;;;5023617;28;20541;-71
2022/04/08 10:04:09;;;;;;;5.50;4.27;;;7.20;99.90;;;;;;5030262;28;20471;-71
2022/04/08 10:06:36;;;;;;;4.50;4.07;;;7.30;99.90;;;;;;5025011;28;20453;-72
2022/04/08 10:09:05;;;;;;;4.40;4.00;;;7.30;99.90;;;;;;5029504;28;20489;-72
2022/04/08 10:11:42;;;;;;;6.53;4.87;;;7.40;99.90;;;;;;5031495;28;20453;-72
2022/04/08 10:14:24;;;;;;;5.03;4.20;;;7.40;99.90;;;;;;5037518;28;20551;-72
2022/04/08 10:16:54;;;;;;;9.33;7.30;;;7.40;99.90;;;;;;5023217;28;21057;-74
2022/04/08 10:19:22;;;;;;;9.90;4.67;;;7.50;99.90;;;;;;5012412;28;20466;-74
2022/04/08 10:21:52;;;;;;;5.63;4.27;;;7.40;99.90;;;;;;5012999;28;20461;-74
2022/04/08 10:24:23;;;;;;;9.10;4.40;;;7.40;99.90;;;;;;5029171;28;20449;-74
2022/04/08 10:27:04;;;;;;;7.03;5.00;;;7.40;99.90;;;;;;5033990;28;20914;-72
2022/04/08 10:29:32;;;;;;;7.67;4.20;;;7.30;99.90;;;;;;5027665;28;20489;-74
2022/04/08 10:32:03;;;;;;;15.30;4.73;;;7.30;99.90;;;;;;5011619;28;20889;-74
2022/04/08 10:34:32;;;;;;;6.67;4.57;;;7.20;99.90;;;;;;5027441;28;20462;-74
2022/04/08 10:37:00;;;;;;;8.10;4.60;;;7.20;99.90;;;;;;5020505;28;20454;-74
2022/04/08 10:39:27;;;;;;;7.83;4.60;;;7.00;99.90;;;;;;5022082;28;20909;-73
2022/04/08 10:41:56;;;;;;;5.27;4.23;;;7.00;99.90;;;;;;5017913;28;20458;-73
2022/04/08 10:44:35;;;;;;;6.47;4.60;;;7.10;99.90;;;;;;5036405;28;20487;-74
2022/04/08 10:47:10;;;;;;;10.73;4.90;;;7.10;99.90;;;;;;5025286;28;20453;-73
2022/04/08 10:49:49;;;;;;;10.00;4.83;;;7.20;99.90;;;;;;5022054;28;20871;-73
2022/04/08 10:52:17;;;;;;;6.43;4.23;;;7.20;99.90;;;;;;5011650;28;20465;-73
2022/04/08 10:54:44;;;;;;;7.77;4.57;;;7.20;99.90;;;;;;5030612;28;20469;-73
2022/04/08 10:57:10;;;;;;;11.60;4.40;;;7.20;99.90;;;;;;5011135;28;20462;-74
2022/04/08 10:59:37;;;;;;;7.80;4.57;;;7.20;99.90;;;;;;5031037;28;20510;-74
2022/04/08 11:02:10;;;;;;;10.73;5.00;;;7.20;99.90;;;;;;5025617;28;20457;-73
2022/04/08 11:04:37;;;;;;;4.73;4.30;;;7.20;99.90;;;;;;5038157;28;20499;-73
2022/04/08 11:07:06;;;;;;;8.70;5.30;;;7.20;99.90;;;;;;5030009;28;20464;-73
2022/04/08 11:09:34;;;;;;;7.97;4.97;;;7.20;99.90;;;;;;5014108;28;20486;-73
2022/04/08 11:12:02;;;;;;;5.63;4.80;;;7.20;99.90;;;;;;5029714;28;20549;-73
2022/04/08 11:14:29;;;;;;;6.50;4.80;;;7.10;99.90;;;;;;5020772;28;20833;-73
2022/04/08 11:16:56;;;;;;;6.40;4.40;;;7.00;99.90;;;;;;5010485;28;20512;-73
2022/04/08 11:19:24;;;;;;;4.80;4.40;;;7.00;99.90;;;;;;5028864;28;20470;-73
2022/04/08 11:21:51;;;;;;;5.93;4.20;;;7.00;99.90;;;;;;5029825;28;20457;-74
2022/04/08 11:24:19;;;;;;;5.50;4.50;;;6.90;99.90;;;;;;5019136;28;20545;-74
2022/04/08 11:26:47;;;;;;;12.67;5.30;;;6.70;99.90;;;;;;5017981;28;20450;-73
2022/04/08 11:29:16;;;;;;;8.37;4.70;;;6.70;99.90;;;;;;5011660;28;20479;-74
2022/04/08 11:31:43;;;;;;;4.47;4.07;;;6.60;99.90;;;;;;5011939;28;20533;-74
2022/04/08 11:34:10;;;;;;;8.27;4.00;;;6.60;99.90;;;;;;5032101;28;20826;-74
2022/04/08 11:36:39;;;;;;;5.40;3.60;;;6.60;99.90;;;;;;5030041;28;20511;-74
2022/04/08 11:39:06;;;;;;;6.30;3.40;;;6.60;99.90;;;;;;5029163;28;20476;-73
2022/04/08 11:41:33;;;;;;;7.60;2.80;;;6.60;99.90;;;;;;5012629;28;20455;-73
2022/04/08 11:44:02;;;;;;;3.67;2.57;;;6.60;99.90;;;;;;5015136;28;20454;-73
2022/04/08 11:46:28;;;;;;;8.23;3.00;;;6.50;99.90;;;;;;5016323;28;20455;-73
2022/04/08 11:48:55;;;;;;;4.80;3.00;;;6.40;99.90;;;;;;5022099;28;20846;-74
2022/04/08 11:51:23;;;;;;;4.97;2.20;;;6.30;99.90;;;;;;5021406;28;20454;-73
2022/04/08 11:53:52;;;;;;;4.23;2.13;;;6.10;99.90;;;;;;5031098;28;20458;-73
2022/04/08 11:56:25;;;;;;;3.93;2.07;;;5.90;99.90;;;;;;5019250;28;20660;-73
2022/04/08 11:58:56;;;;;;;3.23;2.43;;;5.60;99.90;;;;;;5030828;28;20537;-73
2022/04/08 12:01:23;;;;;;;3.77;2.03;;;5.40;99.90;;;;;;5023566;28;21018;-73
2022/04/08 12:03:51;;;;;;;2.10;1.90;;;5.30;99.90;;;;;;5013705;28;20462;-73
2022/04/08 12:06:19;;;;;;;2.07;1.90;;;5.20;99.90;;;;;;5013839;28;20450;-73
2022/04/08 12:08:47;;;;;;;2.50;2.30;;;5.10;99.90;;;;;;5031012;28;20485;-73
2022/04/08 12:11:15;;;;;;;3.10;2.07;;;5.00;99.90;;;;;;5029474;28;20545;-72
2022/04/08 12:13:43;;;;;;;2.80;1.60;;;4.80;99.90;;;;;;5013299;28;20461;-73
2022/04/08 12:16:12;;;;;;;4.23;2.07;;;4.70;99.90;;;;;;5013653;28;21032;-73
2022/04/08 12:18:49;;;;;;;3.90;1.90;;;4.70;99.90;;;;;;5021405;28;20542;-73
2022/04/08 12:21:22;;;;;;;4.47;2.23;;;4.60;99.90;;;;;;5033808;28;20479;-73
2022/04/08 12:23:50;;;;;;;4.93;2.40;;;4.60;99.90;;;;;;5021611;28;20462;-71
2022/04/08 12:26:19;;;;;;;4.37;2.93;;;4.60;99.90;;;;;;5019812;28;20578;-71
2022/04/08 12:28:47;;;;;;;2.40;2.20;;;4.60;99.90;;;;;;5029573;28;20500;-71
2022/04/08 12:31:14;;;;;;;5.03;2.63;;;4.70;99.90;;;;;;5034115;28;20457;-71
2022/04/08 12:33:42;;;;;;;3.50;2.40;;;4.80;99.90;;;;;;5026769;28;20465;-71
2022/04/08 12:36:10;;;;;;;4.17;1.93;;;4.80;99.90;;;;;;5022575;28;20462;-71
2022/04/08 12:38:38;;;;;;;2.50;1.90;;;4.90;99.90;;;;;;5018695;28;20879;-71
2022/04/08 12:41:05;;;;;;;2.37;2.27;;;4.90;99.90;;;;;;5021389;28;20934;-72
2022/04/08 12:43:33;;;;;;;3.50;2.03;;;4.90;99.90;;;;;;5022349;28;20968;-73
2022/04/08 12:46:00;;;;;;;3.67;2.50;;;5.00;99.90;;;;;;5024040;28;20465;-73
2022/04/08 12:48:27;;;;;;;3.87;2.20;;;5.10;99.90;;;;;;5021084;28;20478;-73
2022/04/08 12:50:55;;;;;;;5.00;1.90;;;5.10;99.90;;;;;;5028107;28;20983;-73
2022/04/08 12:53:22;;;;;;;8.37;2.40;;;5.10;99.90;;;;;;5012168;28;20477;-73
2022/04/08 12:55:49;;;;;;;2.60;1.90;;;5.10;99.90;;;;;;5015418;28;21097;-72
2022/04/08 12:58:16;;;;;;;5.03;2.00;;;5.20;99.90;;;;;;5033167;28;20488;-72